createdAt,value
2018-05-16T00:00:07.013Z,13.40
2018-05-16T00:02:41.620Z,13.50
2018-05-16T00:05:15.298Z,13.40
2018-05-16T00:07:48.937Z,13.40
2018-05-16T00:10:23.623Z,13.40
2018-05-16T00:12:57.269Z,13.40
2018-05-16T00:15:31.953Z,13.40
2018-05-16T00:18:05.589Z,13.40
2018-05-16T00:20:39.268Z,13.40
2018-05-16T00:23:12.904Z,13.40
2018-05-16T00:25:46.580Z,13.30
2018-05-16T00:28:20.235Z,13.30
2018-05-16T00:30:54.904Z,13.30
2018-05-16T00:33:29.516Z,13.30
2018-05-16T00:36:03.187Z,13.20
2018-05-16T00:38:36.824Z,13.20
2018-05-16T00:41:11.456Z,13.20
2018-05-16T00:43:46.889Z,13.20
2018-05-16T00:46:21.509Z,13.20
2018-05-16T00:48:55.151Z,13.20
2018-05-16T00:51:34.309Z,13.20
2018-05-16T00:54:07.945Z,13.20
2018-05-16T00:56:41.620Z,13.20
2018-05-16T00:59:15.257Z,13.20
2018-05-16T01:01:48.934Z,13.10
2018-05-16T01:04:22.580Z,13.10
2018-05-16T01:06:57.230Z,13.10
2018-05-16T01:09:31.701Z,13.00
2018-05-16T01:12:05.173Z,12.90
2018-05-16T01:14:38.808Z,12.90
2018-05-16T01:17:12.490Z,13.00
2018-05-16T01:19:46.124Z,12.90
2018-05-16T01:22:19.806Z,12.90
2018-05-16T01:24:53.455Z,12.90
2018-05-16T01:27:27.129Z,12.90
2018-05-16T01:30:00.768Z,13.00
2018-05-16T01:32:34.442Z,13.00
2018-05-16T01:35:08.856Z,12.90
2018-05-16T01:37:43.503Z,12.90
2018-05-16T01:40:18.099Z,12.90
2018-05-16T01:42:52.536Z,12.90
2018-05-16T01:45:26.191Z,12.90
2018-05-16T01:48:00.846Z,12.80
2018-05-16T02:08:25.267Z,12.40
2018-05-16T02:10:59.924Z,12.40
2018-05-16T02:13:33.559Z,12.30
2018-05-16T02:16:07.245Z,12.30
2018-05-16T02:18:40.888Z,12.30
2018-05-16T02:21:14.864Z,12.20
2018-05-16T02:23:48.497Z,12.20
2018-05-16T02:26:22.184Z,12.20
2018-05-16T02:28:56.587Z,12.20
2018-05-16T02:31:30.296Z,12.20
2018-05-16T02:34:04.705Z,12.20
2018-05-16T02:36:38.391Z,12.20
2018-05-16T02:39:12.028Z,12.20
2018-05-16T02:41:46.467Z,12.10
2018-05-16T02:44:20.409Z,12.10
2018-05-16T02:46:54.704Z,12.10
2018-05-16T02:49:29.300Z,12.00
2018-05-16T02:52:02.966Z,12.00
2018-05-16T02:54:37.559Z,12.00
2018-05-16T02:57:11.234Z,11.90
2018-05-16T02:59:44.885Z,11.90
2018-05-16T03:02:19.563Z,11.80
2018-05-16T03:04:53.208Z,11.70
2018-05-16T03:07:26.892Z,11.70
2018-05-16T03:10:00.532Z,11.70
2018-05-16T03:12:34.213Z,11.70
2018-05-16T03:15:07.851Z,11.70
2018-05-16T03:17:41.532Z,11.80
2018-05-16T03:20:15.173Z,11.70
2018-05-16T03:22:48.847Z,11.80
2018-05-16T03:25:24.205Z,11.80
2018-05-16T03:27:58.842Z,11.80
2018-05-16T03:30:33.473Z,11.90
2018-05-16T03:33:07.157Z,11.90
2018-05-16T03:35:40.792Z,11.90
2018-05-16T03:38:15.424Z,12.00
2018-05-16T03:40:50.030Z,12.00
2018-05-16T03:43:23.714Z,12.10
2018-05-16T03:45:58.343Z,12.10
2018-05-16T03:48:32.025Z,12.20
2018-05-16T03:51:05.658Z,12.30
2018-05-16T03:53:40.307Z,12.30
2018-05-16T03:56:16.555Z,12.40
2018-05-16T03:59:01.481Z,12.50
2018-05-16T04:02:00.212Z,12.60
2018-05-16T04:04:33.889Z,12.70
2018-05-16T04:07:07.524Z,12.80
2018-05-16T04:09:42.223Z,12.90
2018-05-16T04:12:15.860Z,12.90
2018-05-16T04:14:50.530Z,13.00
2018-05-16T04:17:25.868Z,13.00
2018-05-16T04:19:59.543Z,13.10
2018-05-16T04:22:33.946Z,13.30
2018-05-16T04:25:07.621Z,13.30
2018-05-16T04:27:41.338Z,13.30
2018-05-16T04:30:15.029Z,13.40
2018-05-16T04:32:48.673Z,13.50
2018-05-16T04:35:23.116Z,13.70
2018-05-16T04:37:57.524Z,13.80
2018-05-16T04:40:32.156Z,14.00
2018-05-16T04:43:05.792Z,14.30
2018-05-16T04:45:39.464Z,14.50
2018-05-16T04:48:14.101Z,14.60
2018-05-16T04:50:47.771Z,14.90
2018-05-16T04:53:22.363Z,15.40
2018-05-16T04:55:57.010Z,15.90
2018-05-16T04:58:30.648Z,16.50
2018-05-16T05:01:05.396Z,17.10
2018-05-16T05:03:40.652Z,17.60
2018-05-16T05:06:15.883Z,18.00
2018-05-16T05:08:50.115Z,18.10
2018-05-16T05:11:25.270Z,18.00
2018-05-16T05:13:59.455Z,18.00
2018-05-16T05:16:33.680Z,18.20
2018-05-16T05:19:07.868Z,18.40
2018-05-16T05:21:42.100Z,18.60
2018-05-16T05:24:16.295Z,18.80
2018-05-16T05:26:52.320Z,19.50
2018-05-16T05:29:26.699Z,19.50
2018-05-16T05:32:00.931Z,20.10
2018-05-16T05:34:36.108Z,20.40
2018-05-16T05:37:11.100Z,20.00
2018-05-16T05:39:45.299Z,19.90
2018-05-16T05:42:19.529Z,19.70
2018-05-16T05:44:53.723Z,19.40
2018-05-16T05:47:27.976Z,19.30
2018-05-16T05:50:02.944Z,19.40
2018-05-16T05:52:37.170Z,19.40
2018-05-16T05:55:11.363Z,19.60
2018-05-16T05:57:45.587Z,19.50
2018-05-16T06:00:21.337Z,19.30
2018-05-16T06:03:01.279Z,19.30
2018-05-16T06:05:36.629Z,19.30
2018-05-16T06:08:14.141Z,19.50
2018-05-16T06:10:49.634Z,19.70
2018-05-16T06:13:25.083Z,19.70
2018-05-16T06:16:00.050Z,19.60
2018-05-16T06:18:34.330Z,19.60
2018-05-16T06:21:17.108Z,19.80
2018-05-16T06:23:56.930Z,19.80
2018-05-16T06:26:39.138Z,20.50
2018-05-16T06:29:17.496Z,21.10
2018-05-16T06:31:57.168Z,24.30
2018-05-16T06:34:31.951Z,24.20
2018-05-16T06:37:06.680Z,24.70
2018-05-16T06:39:43.224Z,25.10
2018-05-16T06:42:18.826Z,25.00
2018-05-16T06:44:53.210Z,25.90
2018-05-16T06:47:30.028Z,24.70
2018-05-16T06:50:06.441Z,24.70
2018-05-16T06:52:42.680Z,23.70
2018-05-16T06:55:17.072Z,23.50
2018-05-16T06:57:52.170Z,23.90
2018-05-16T07:00:26.892Z,25.70
2018-05-16T07:03:02.765Z,25.60
2018-05-16T07:05:41.515Z,27.20
2018-05-16T07:08:16.602Z,27.20
2018-05-16T07:10:51.604Z,28.90
2018-05-16T07:13:26.768Z,28.90
2018-05-16T07:16:01.682Z,29.40
2018-05-16T07:18:36.355Z,29.00
2018-05-16T07:21:10.298Z,29.00
2018-05-16T07:23:44.205Z,29.50
2018-05-16T07:26:19.132Z,29.90
2018-05-16T07:28:53.036Z,30.30
2018-05-16T07:31:26.969Z,30.70
2018-05-16T07:34:01.639Z,30.90
2018-05-16T07:36:35.581Z,30.90
2018-05-16T07:39:09.484Z,31.00
2018-05-16T07:41:43.454Z,30.90
2018-05-16T07:44:17.375Z,31.30
2018-05-16T07:46:51.315Z,31.90
2018-05-16T07:49:25.227Z,32.50
2018-05-16T07:51:59.934Z,33.30
2018-05-16T07:54:33.845Z,33.20
2018-05-16T07:57:07.783Z,33.60
2018-05-16T07:59:42.490Z,31.60
2018-05-16T08:02:17.190Z,30.30
2018-05-16T08:04:51.088Z,30.30
2018-05-16T08:07:25.029Z,29.10
2018-05-16T08:10:00.196Z,28.20
2018-05-16T08:12:36.632Z,26.80
2018-05-16T08:15:11.803Z,26.70
2018-05-16T08:17:46.792Z,26.40
2018-05-16T08:20:20.987Z,26.40
2018-05-16T08:22:56.219Z,26.40
2018-05-16T08:25:30.423Z,26.70
2018-05-16T08:28:05.632Z,27.10
2018-05-16T08:30:41.561Z,27.60
2018-05-16T08:33:15.801Z,27.60
2018-05-16T08:35:50.809Z,27.30
2018-05-16T08:38:25.046Z,27.30
2018-05-16T08:41:00.011Z,27.10
2018-05-16T08:43:34.239Z,27.10
2018-05-16T08:46:09.070Z,26.90
2018-05-16T08:48:43.312Z,26.60
2018-05-16T08:51:18.471Z,26.20
2018-05-16T08:53:53.466Z,25.50
2018-05-16T08:56:27.651Z,25.50
2018-05-16T08:59:01.879Z,25.50
2018-05-16T09:01:36.064Z,25.50
2018-05-16T09:04:12.032Z,25.40
2018-05-16T09:06:46.215Z,25.40
2018-05-16T09:09:22.189Z,24.60
2018-05-16T09:11:56.386Z,24.60
2018-05-16T09:14:31.392Z,24.00
2018-05-16T09:17:05.593Z,24.00
2018-05-16T09:19:40.788Z,23.80
2018-05-16T09:22:14.991Z,23.80
2018-05-16T09:24:50.205Z,24.20
2018-05-16T09:27:24.394Z,24.10
2018-05-16T09:29:58.649Z,23.90
2018-05-16T09:32:33.609Z,23.60
2018-05-16T09:35:07.840Z,23.50
2018-05-16T09:37:42.059Z,23.40
2018-05-16T09:40:16.308Z,23.40
2018-05-16T09:42:50.664Z,23.50
2018-05-16T09:45:24.897Z,24.30
2018-05-16T09:47:59.076Z,24.60
2018-05-16T09:50:34.259Z,25.00
2018-05-16T09:53:08.439Z,25.60
2018-05-16T09:55:42.668Z,25.70
2018-05-16T09:58:16.849Z,26.10
2018-05-16T10:00:51.080Z,25.80
2018-05-16T10:03:25.276Z,25.30
2018-05-16T10:06:00.274Z,25.50
2018-05-16T10:08:34.466Z,25.50
2018-05-16T10:11:09.653Z,25.10
2018-05-16T10:13:44.628Z,24.00
2018-05-16T10:16:18.852Z,24.00
2018-05-16T10:18:53.036Z,23.60
2018-05-16T10:21:27.323Z,23.50
2018-05-16T10:24:02.285Z,23.90
2018-05-16T10:26:36.522Z,23.80
2018-05-16T10:29:10.703Z,24.10
2018-05-16T10:31:44.941Z,24.30
2018-05-16T10:34:20.862Z,24.50
2018-05-16T10:36:55.847Z,24.60
2018-05-16T10:39:30.041Z,24.50
2018-05-16T10:42:04.273Z,24.20
2018-05-16T10:44:39.436Z,24.00
2018-05-16T10:47:14.441Z,24.20
2018-05-16T10:49:48.639Z,24.30
2018-05-16T10:52:22.881Z,24.30
2018-05-16T10:54:58.027Z,24.20
2018-05-16T10:57:32.264Z,24.00
2018-05-16T11:00:06.482Z,24.00
2018-05-16T11:02:41.704Z,24.20
2018-05-16T11:05:16.661Z,24.80
2018-05-16T11:07:51.094Z,24.70
2018-05-16T11:10:25.575Z,24.90
2018-05-16T11:13:00.943Z,25.20
2018-05-16T11:15:35.147Z,25.50
2018-05-16T11:18:10.357Z,25.30
2018-05-16T11:20:45.333Z,25.30
2018-05-16T11:23:20.555Z,25.20
2018-05-16T11:25:54.819Z,25.40
2018-05-16T11:28:29.497Z,25.80
2018-05-16T11:31:03.707Z,25.90
2018-05-16T11:33:37.944Z,26.40
2018-05-16T11:36:12.140Z,26.70
2018-05-16T11:38:47.332Z,26.90
2018-05-16T11:41:21.533Z,26.80
2018-05-16T11:43:55.765Z,26.40
2018-05-16T11:46:29.962Z,26.10
2018-05-16T11:49:04.264Z,26.20
2018-05-16T11:51:38.607Z,26.10
2018-05-16T11:54:14.613Z,25.60
2018-05-16T11:56:48.807Z,25.60
2018-05-16T11:59:23.811Z,25.80
2018-05-16T12:01:58.019Z,25.70
2018-05-16T12:04:32.252Z,25.70
2018-05-16T12:07:07.220Z,24.80
2018-05-16T12:09:41.474Z,24.80
2018-05-16T12:12:15.666Z,24.40
2018-05-16T12:14:49.946Z,24.00
2018-05-16T12:17:24.305Z,23.80
2018-05-16T12:19:59.557Z,23.50
2018-05-16T12:22:34.726Z,23.30
2018-05-16T12:25:10.704Z,23.10
2018-05-16T12:27:44.905Z,23.00
2018-05-16T12:30:20.863Z,23.10
2018-05-16T12:32:55.057Z,23.10
2018-05-16T12:35:30.055Z,23.20
2018-05-16T12:38:04.248Z,23.10
2018-05-16T12:40:39.447Z,23.30
2018-05-16T12:43:18.096Z,23.40
2018-05-16T12:45:52.370Z,23.40
2018-05-16T12:48:27.336Z,23.60
2018-05-16T12:51:02.546Z,23.60
2018-05-16T12:53:37.708Z,23.70
2018-05-16T12:56:11.942Z,23.70
2018-05-16T12:58:46.155Z,23.80
2018-05-16T13:01:21.415Z,23.70
2018-05-16T13:03:55.801Z,23.70
2018-05-16T13:06:30.027Z,23.70
2018-05-16T13:09:03.344Z,23.80
2018-05-16T13:11:38.566Z,24.00
2018-05-16T13:14:12.769Z,24.30
2018-05-16T13:16:47.947Z,24.40
2018-05-16T13:19:22.144Z,24.50
2018-05-16T13:21:56.376Z,24.50
2018-05-16T13:24:31.569Z,24.50
2018-05-16T13:27:06.562Z,24.50
2018-05-16T13:29:41.520Z,24.20
2018-05-16T13:32:15.793Z,24.20
2018-05-16T13:34:50.982Z,23.80
2018-05-16T13:37:25.203Z,23.80
2018-05-16T13:39:59.413Z,23.60
2018-05-16T13:42:33.636Z,23.60
2018-05-16T13:45:08.820Z,23.60
2018-05-16T13:47:43.817Z,23.60
2018-05-16T13:50:18.016Z,23.60
2018-05-16T13:52:52.308Z,23.40
2018-05-16T13:55:26.506Z,23.40
2018-05-16T13:58:00.736Z,23.40
2018-05-16T14:00:35.943Z,23.40
2018-05-16T14:03:10.945Z,23.30
2018-05-16T14:05:45.122Z,23.20
2018-05-16T14:08:19.363Z,23.10
2018-05-16T14:10:53.570Z,23.00
2018-05-16T14:13:27.807Z,22.90
2018-05-16T14:16:02.003Z,22.80
2018-05-16T14:18:36.243Z,22.70
2018-05-16T14:21:11.410Z,22.60
2018-05-16T14:23:45.711Z,22.50
2018-05-16T14:26:21.000Z,22.40
2018-05-16T14:28:55.241Z,22.40
2018-05-16T14:31:29.490Z,22.50
2018-05-16T14:34:03.728Z,22.40
2018-05-16T14:36:37.923Z,22.50
2018-05-16T14:39:12.157Z,22.50
2018-05-16T14:41:46.359Z,22.50
2018-05-16T14:44:21.593Z,22.60
2018-05-16T14:46:56.765Z,22.70
2018-05-16T14:49:31.024Z,22.70
2018-05-16T14:52:06.013Z,23.00
2018-05-16T14:54:41.225Z,23.20
2018-05-16T14:57:17.485Z,23.40
2018-05-16T14:59:53.437Z,23.40
2018-05-16T15:02:28.160Z,23.50
2018-05-16T15:05:05.015Z,23.60
2018-05-16T15:07:46.295Z,23.80
2018-05-16T15:10:22.091Z,23.80
2018-05-16T15:12:57.211Z,23.80
2018-05-16T15:15:33.604Z,23.80
2018-05-16T15:18:09.587Z,23.70
2018-05-16T15:20:46.195Z,23.60
2018-05-16T15:23:23.425Z,23.50
2018-05-16T15:25:59.072Z,23.40
2018-05-16T15:28:34.408Z,23.30
2018-05-16T15:31:10.795Z,23.10
2018-05-16T15:33:45.455Z,23.10
2018-05-16T15:36:20.185Z,23.00
2018-05-16T15:38:55.698Z,23.00
2018-05-16T15:41:31.848Z,23.00
2018-05-16T15:44:06.940Z,22.90
2018-05-16T15:46:41.509Z,22.90
2018-05-16T15:49:17.116Z,23.00
2018-05-16T15:51:51.634Z,23.10
2018-05-16T15:54:26.661Z,23.30
2018-05-16T15:57:01.487Z,23.40
2018-05-16T15:59:36.951Z,23.40
2018-05-16T16:02:11.775Z,23.40
2018-05-16T16:04:46.230Z,23.40
2018-05-16T16:07:20.474Z,23.40
2018-05-16T16:09:55.581Z,22.90
2018-05-16T16:12:31.573Z,22.70
2018-05-16T16:15:06.455Z,22.70
2018-05-16T16:17:41.571Z,22.50
2018-05-16T16:20:16.059Z,22.30
2018-05-16T16:22:52.323Z,22.20
2018-05-16T16:25:28.564Z,22.00
2018-05-16T16:28:04.243Z,21.90
2018-05-16T16:30:37.846Z,21.80
2018-05-16T16:33:13.202Z,21.60
2018-05-16T16:35:48.682Z,21.30
2018-05-16T16:38:23.418Z,20.90
2018-05-16T16:40:58.410Z,20.60
2018-05-16T16:43:32.608Z,20.60
2018-05-16T16:46:06.899Z,20.40
2018-05-16T16:48:41.074Z,20.10
2018-05-16T16:51:15.290Z,20.00
2018-05-16T16:53:49.460Z,19.90
2018-05-16T16:56:23.684Z,19.90
2018-05-16T16:58:57.868Z,19.80
2018-05-16T17:01:32.098Z,19.70
2018-05-16T17:04:06.296Z,19.60
2018-05-16T17:06:40.519Z,19.40
2018-05-16T17:09:15.477Z,19.20
2018-05-16T17:11:50.684Z,19.20
2018-05-16T17:14:27.517Z,19.10
2018-05-16T17:17:02.512Z,19.00
2018-05-16T17:19:36.713Z,19.00
2018-05-16T17:22:10.927Z,18.90
2018-05-16T17:24:46.085Z,18.80
2018-05-16T17:27:21.277Z,18.70
2018-05-16T17:29:55.465Z,18.60
2018-05-16T17:32:30.654Z,18.60
2018-05-16T17:35:04.532Z,18.60
2018-05-16T17:37:38.773Z,18.60
2018-05-16T17:40:12.978Z,18.60
2018-05-16T17:42:47.206Z,18.60
2018-05-16T17:45:22.388Z,18.60
2018-05-16T17:47:57.405Z,18.60
2018-05-16T17:50:31.602Z,18.70
2018-05-16T17:53:05.843Z,18.70
2018-05-16T17:55:40.995Z,18.70
2018-05-16T17:58:15.978Z,18.60
2018-05-16T18:00:50.206Z,18.60
2018-05-16T18:03:25.556Z,18.50
2018-05-16T18:05:59.738Z,18.30
2018-05-16T18:08:34.993Z,18.10
2018-05-16T18:11:09.170Z,18.10
2018-05-16T18:14:04.533Z,18.00
2018-05-16T18:16:50.715Z,17.90
2018-05-16T18:19:25.904Z,17.80
2018-05-16T18:22:00.099Z,17.80
2018-05-16T18:24:34.365Z,17.60
2018-05-16T18:27:08.237Z,17.60
2018-05-16T18:29:42.476Z,17.50
2018-05-16T18:32:16.671Z,17.40
2018-05-16T18:34:51.875Z,17.30
2018-05-16T18:37:27.817Z,17.10
2018-05-16T18:40:02.814Z,17.10
2018-05-16T18:42:37.087Z,17.00
2018-05-16T18:45:11.452Z,17.00
2018-05-16T18:47:45.733Z,16.90
2018-05-16T18:50:20.056Z,16.90
2018-05-16T18:52:54.260Z,16.80
2018-05-16T18:55:28.521Z,16.70
2018-05-16T18:58:02.720Z,16.70
2018-05-16T19:00:42.463Z,16.70
2018-05-16T19:03:16.678Z,16.60
2018-05-16T19:05:50.913Z,16.50
2018-05-16T19:08:25.892Z,16.40
2018-05-16T19:11:00.541Z,16.30
2018-05-16T19:13:34.753Z,16.30
2018-05-16T19:16:09.025Z,16.30
2018-05-16T19:18:44.224Z,16.20
2018-05-16T19:21:18.518Z,16.20
2018-05-16T19:23:52.727Z,16.20
2018-05-16T19:26:26.994Z,16.00
2018-05-16T19:29:02.016Z,15.90
2018-05-16T19:31:37.042Z,15.90
2018-05-16T19:34:11.319Z,15.90
2018-05-16T19:36:45.582Z,15.80
2018-05-16T19:39:20.571Z,15.70
2018-05-16T19:41:54.838Z,15.70
2018-05-16T19:44:29.821Z,15.50
2018-05-16T19:47:04.280Z,15.40
2018-05-16T19:49:38.880Z,15.50
2018-05-16T19:52:13.318Z,15.40
2018-05-16T19:54:46.956Z,15.30
2018-05-16T19:57:20.640Z,15.40
2018-05-16T19:59:54.301Z,15.40
2018-05-16T20:02:28.016Z,15.40
2018-05-16T20:05:03.190Z,15.40
2018-05-16T20:07:37.877Z,15.40
2018-05-16T20:10:12.087Z,15.40
2018-05-16T20:12:45.781Z,15.40
2018-05-16T20:15:19.451Z,15.40
2018-05-16T20:17:54.141Z,15.30
2018-05-16T20:20:27.788Z,15.10
2018-05-16T20:23:02.232Z,14.90
2018-05-16T20:25:36.851Z,14.90
2018-05-16T20:28:11.508Z,14.80
2018-05-16T20:30:45.163Z,14.70
2018-05-16T20:33:19.408Z,14.60
2018-05-16T20:35:53.056Z,14.50
2018-05-16T20:38:26.738Z,14.40
2018-05-16T20:41:00.389Z,14.30
2018-05-16T20:43:34.848Z,14.20
2018-05-16T20:46:08.483Z,14.20
2018-05-16T20:48:42.170Z,14.20
2018-05-16T20:51:16.194Z,14.20
2018-05-16T20:53:51.370Z,14.20
2018-05-16T20:56:25.023Z,14.20
2018-05-16T20:58:59.686Z,14.20
2018-05-16T21:01:33.332Z,14.20
2018-05-16T21:04:07.029Z,14.20
2018-05-16T21:06:41.636Z,14.20
2018-05-16T21:09:15.306Z,14.20
2018-05-16T21:11:49.716Z,14.20
2018-05-16T21:14:25.145Z,14.20
2018-05-16T21:16:58.785Z,14.20
2018-05-16T21:19:33.440Z,14.20
2018-05-16T21:22:07.079Z,14.20
2018-05-16T21:24:41.530Z,14.10
2018-05-16T21:27:15.171Z,14.10
2018-05-16T21:29:49.863Z,14.10
2018-05-16T21:32:23.500Z,14.00
2018-05-16T21:34:57.186Z,14.00
2018-05-16T21:37:30.821Z,13.90
2018-05-16T21:40:05.272Z,13.80
2018-05-16T21:42:39.870Z,13.80
2018-05-16T21:45:13.540Z,13.70
2018-05-16T21:47:47.192Z,13.70
2018-05-16T21:50:20.874Z,13.70
2018-05-16T21:52:55.281Z,13.70
2018-05-16T21:55:29.940Z,13.60
2018-05-16T21:58:03.583Z,13.70
2018-05-16T22:00:36.943Z,13.70
2018-05-16T22:03:10.578Z,13.70
2018-05-16T22:05:44.262Z,13.80
2018-05-16T22:08:17.899Z,13.80
2018-05-16T22:10:52.575Z,13.90
2018-05-16T22:13:26.221Z,14.00
2018-05-16T22:15:59.900Z,14.10
2018-05-16T22:18:33.534Z,14.00
2018-05-16T22:21:08.960Z,14.10
2018-05-16T22:23:42.607Z,14.10
2018-05-16T22:26:16.300Z,14.10
2018-05-16T22:28:50.896Z,14.10
2018-05-16T22:31:30.031Z,14.10
2018-05-16T22:34:09.984Z,14.10
2018-05-16T22:36:49.792Z,14.20
2018-05-16T22:39:28.983Z,14.20
2018-05-16T22:42:08.187Z,14.20
2018-05-16T22:44:47.967Z,14.40
2018-05-16T22:47:21.646Z,14.40
2018-05-16T22:49:56.048Z,14.40
2018-05-16T22:52:29.733Z,14.40
2018-05-16T22:55:04.336Z,14.30
2018-05-16T22:57:39.009Z,14.20
2018-05-16T23:00:13.641Z,13.90
2018-05-16T23:02:47.325Z,13.90
2018-05-16T23:05:21.736Z,13.70
2018-05-16T23:07:56.372Z,13.70
2018-05-16T23:10:30.775Z,13.60
2018-05-16T23:13:04.445Z,13.60
2018-05-16T23:15:38.092Z,13.50
2018-05-16T23:18:12.904Z,13.50
2018-05-16T23:20:46.539Z,13.50
2018-05-16T23:23:20.237Z,13.60
2018-05-16T23:25:54.831Z,13.60
2018-05-16T23:28:28.518Z,13.60
2018-05-16T23:31:02.152Z,13.70
2018-05-16T23:33:37.560Z,13.60
2018-05-16T23:36:12.162Z,13.60
2018-05-16T23:38:46.827Z,13.50
2018-05-16T23:41:20.462Z,13.50
2018-05-16T23:43:54.146Z,13.40
2018-05-16T23:46:28.544Z,13.30
2018-05-16T23:49:03.203Z,13.30
2018-05-16T23:51:37.791Z,13.30
2018-05-16T23:54:11.468Z,13.30
2018-05-16T23:56:45.105Z,13.20
2018-05-16T23:59:19.552Z,13.20
